createdAt,value
2023-05-08T00:00:56.297Z,562.00
2023-05-08T00:01:56.270Z,472.10
2023-05-08T00:02:56.412Z,504.30
2023-05-08T00:03:56.477Z,477.40
2023-05-08T00:04:56.380Z,499.30
2023-05-08T00:05:56.265Z,542.50
2023-05-08T00:06:56.241Z,475.90
2023-05-08T00:07:56.361Z,520.10
2023-05-08T00:08:56.249Z,484.60
2023-05-08T00:09:56.295Z,509.20
2023-05-08T00:10:56.181Z,489.90
2023-05-08T00:11:56.077Z,410.60
2023-05-08T00:13:17.157Z,473.90
2023-05-08T00:14:29.529Z,500.10
2023-05-08T00:14:57.035Z,560.90
2023-05-08T00:15:56.113Z,573.10
2023-05-08T00:16:56.293Z,519.50
2023-05-08T00:17:56.063Z,516.70
2023-05-08T00:18:56.033Z,565.30
2023-05-08T00:19:56.096Z,503.60
2023-05-08T00:20:56.082Z,466.80
2023-05-08T00:21:56.163Z,478.00
2023-05-08T00:22:56.059Z,421.70
2023-05-08T00:23:56.092Z,435.10
2023-05-08T00:24:56.048Z,544.60
2023-05-08T00:25:55.998Z,394.30
2023-05-08T00:26:56.416Z,490.70
2023-05-08T00:27:56.016Z,468.60
2023-05-08T00:28:56.014Z,480.80
2023-05-08T00:29:55.916Z,441.00
2023-05-08T00:30:55.924Z,411.10
2023-05-08T00:31:56.007Z,466.30
2023-05-08T00:32:56.104Z,500.70
2023-05-08T00:33:56.094Z,385.10
2023-05-08T00:34:56.071Z,333.90
2023-05-08T00:35:55.914Z,294.90
2023-05-08T00:36:55.875Z,245.70
2023-05-08T00:37:56.084Z,233.40
2023-05-08T00:38:55.872Z,190.20
2023-05-08T00:39:55.869Z,183.70
2023-05-08T00:40:55.928Z,182.20
2023-05-08T00:41:55.834Z,172.90
2023-05-08T00:42:55.880Z,184.20
2023-05-08T00:43:55.922Z,193.80
2023-05-08T00:44:55.819Z,214.80
2023-05-08T00:45:56.040Z,218.40
2023-05-08T00:46:55.951Z,183.70
2023-05-08T00:47:55.923Z,185.50
2023-05-08T00:48:55.955Z,198.60
2023-05-08T00:49:55.960Z,194.60
2023-05-08T00:50:55.878Z,202.30
2023-05-08T00:51:55.861Z,196.30
2023-05-08T00:52:55.909Z,181.70
2023-05-08T00:53:55.836Z,184.30
2023-05-08T00:54:55.834Z,176.30
2023-05-08T00:55:55.927Z,283.70
2023-05-08T00:56:55.801Z,319.30
2023-05-08T00:57:55.762Z,193.80
2023-05-08T00:58:55.777Z,277.80
2023-05-08T00:59:55.872Z,295.00
2023-05-08T01:00:55.850Z,286.10
2023-05-08T01:01:55.832Z,378.80
2023-05-08T01:02:55.898Z,273.20
2023-05-08T01:03:55.865Z,236.90
2023-05-08T01:04:55.688Z,190.80
2023-05-08T01:05:55.753Z,192.30
2023-05-08T01:06:55.708Z,280.60
2023-05-08T01:07:55.681Z,208.50
2023-05-08T01:08:55.657Z,174.90
2023-05-08T01:09:55.752Z,214.30
2023-05-08T01:10:55.883Z,305.30
2023-05-08T01:11:55.678Z,236.00
2023-05-08T01:12:55.653Z,217.10
2023-05-08T01:13:55.792Z,193.80
2023-05-08T01:14:55.647Z,194.80
2023-05-08T01:15:55.674Z,199.30
2023-05-08T01:16:55.715Z,201.80
2023-05-08T01:17:55.736Z,212.20
2023-05-08T01:18:55.846Z,203.10
2023-05-08T01:19:55.728Z,209.70
2023-05-08T01:20:55.556Z,208.90
2023-05-08T01:21:55.642Z,228.50
2023-05-08T01:22:55.657Z,251.50
2023-05-08T01:23:55.635Z,279.40
2023-05-08T01:24:55.588Z,236.20
2023-05-08T01:25:55.598Z,248.00
2023-05-08T01:26:55.629Z,173.20
2023-05-08T01:27:56.004Z,200.80
2023-05-08T01:28:55.532Z,239.50
2023-05-08T01:29:55.564Z,317.60
2023-05-08T01:30:55.517Z,322.90
2023-05-08T01:31:55.597Z,210.70
2023-05-08T01:32:55.695Z,426.20
2023-05-08T01:33:55.678Z,477.60
2023-05-08T01:34:55.576Z,445.60
2023-05-08T01:35:55.517Z,439.90
2023-05-08T01:36:55.507Z,455.60
2023-05-08T01:37:55.533Z,284.30
2023-05-08T01:38:55.560Z,247.60
2023-05-08T01:39:55.503Z,348.50
2023-05-08T01:40:55.477Z,231.00
2023-05-08T01:41:55.519Z,418.50
2023-05-08T01:42:55.433Z,414.90
2023-05-08T01:43:55.754Z,393.80
2023-05-08T01:44:55.457Z,354.90
2023-05-08T01:45:55.666Z,360.10
2023-05-08T01:46:55.582Z,348.30
2023-05-08T01:47:55.520Z,366.60
2023-05-08T01:49:05.206Z,328.60
2023-05-08T01:49:56.445Z,344.30
2023-05-08T01:50:55.655Z,306.80
2023-05-08T01:51:55.392Z,224.60
2023-05-08T01:52:55.401Z,231.40
2023-05-08T01:53:55.448Z,221.60
2023-05-08T01:54:55.310Z,194.00
2023-05-08T01:55:55.378Z,260.40
2023-05-08T01:56:55.395Z,304.60
2023-05-08T01:57:55.358Z,183.50
2023-05-08T01:58:55.445Z,212.50
2023-05-08T01:59:55.380Z,289.70
2023-05-08T02:00:55.388Z,300.00
2023-05-08T02:01:55.371Z,265.70
2023-05-08T02:02:55.478Z,354.90
2023-05-08T02:03:55.461Z,318.50
2023-05-08T02:04:55.480Z,290.30
2023-05-08T02:05:55.338Z,292.70
2023-05-08T02:06:55.296Z,277.00
2023-05-08T02:07:55.397Z,320.90
2023-05-08T02:08:55.345Z,274.10
2023-05-08T02:09:55.334Z,265.00
2023-05-08T02:10:55.395Z,300.70
2023-05-08T02:11:55.330Z,231.70
2023-05-08T02:12:55.320Z,308.00
2023-05-08T02:13:55.316Z,239.20
2023-05-08T02:14:55.264Z,293.50
2023-05-08T02:15:55.238Z,276.30
2023-05-08T02:16:55.366Z,260.50
2023-05-08T02:17:55.415Z,207.40
2023-05-08T02:18:55.293Z,252.40
2023-05-08T02:19:55.248Z,208.30
2023-05-08T02:20:55.333Z,205.80
2023-05-08T02:21:55.347Z,290.60
2023-05-08T02:22:55.266Z,336.30
2023-05-08T02:23:55.311Z,222.80
2023-05-08T02:24:55.174Z,177.20
2023-05-08T02:25:55.281Z,197.90
2023-05-08T02:26:55.200Z,182.70
2023-05-08T02:27:55.373Z,223.10
2023-05-08T02:28:55.335Z,221.60
2023-05-08T02:29:55.324Z,222.50
2023-05-08T02:30:55.157Z,231.20
2023-05-08T02:31:55.542Z,266.90
2023-05-08T02:32:55.149Z,221.80
2023-05-08T02:34:15.121Z,226.40
2023-05-08T02:35:02.607Z,296.10
2023-05-08T02:35:57.034Z,270.00
2023-05-08T02:36:55.175Z,278.90
2023-05-08T02:37:55.140Z,276.70
2023-05-08T02:38:55.127Z,212.60
2023-05-08T02:39:55.058Z,256.70
2023-05-08T02:40:55.098Z,301.50
2023-05-08T02:41:55.121Z,303.50
2023-05-08T02:42:55.195Z,246.90
2023-05-08T02:43:55.086Z,268.30
2023-05-08T02:44:55.100Z,240.50
2023-05-08T02:45:55.089Z,174.40
2023-05-08T02:46:55.356Z,204.10
2023-05-08T02:47:55.102Z,185.30
2023-05-08T02:48:55.185Z,187.60
2023-05-08T02:49:55.172Z,163.00
2023-05-08T02:50:54.956Z,198.20
2023-05-08T02:51:55.084Z,195.80
2023-05-08T02:52:55.052Z,167.10
2023-05-08T02:53:55.089Z,243.90
2023-05-08T02:54:54.963Z,174.20
2023-05-08T02:55:54.964Z,188.10
2023-05-08T02:56:54.911Z,231.90
2023-05-08T02:57:54.975Z,189.80
2023-05-08T02:58:54.906Z,191.80
2023-05-08T02:59:54.963Z,209.90
2023-05-08T03:00:54.911Z,187.60
2023-05-08T03:01:54.951Z,203.10
2023-05-08T03:02:54.894Z,200.20
2023-05-08T03:03:54.993Z,210.90
2023-05-08T03:04:54.967Z,194.90
2023-05-08T03:05:54.955Z,272.10
2023-05-08T03:06:54.884Z,215.90
2023-05-08T03:07:54.933Z,185.30
2023-05-08T03:08:54.996Z,172.50
2023-05-08T03:09:54.842Z,206.10
2023-05-08T03:10:54.931Z,174.60
2023-05-08T03:11:54.878Z,233.40
2023-05-08T03:12:54.777Z,232.20
2023-05-08T03:13:54.720Z,230.50
2023-05-08T03:14:54.792Z,267.50
2023-05-08T03:15:54.918Z,188.90
2023-05-08T03:16:54.887Z,209.40
2023-05-08T03:17:54.901Z,236.90
2023-05-08T03:18:54.791Z,373.80
2023-05-08T03:19:55.046Z,348.70
2023-05-08T03:20:54.832Z,218.10
2023-05-08T03:21:54.795Z,200.30
2023-05-08T03:22:54.871Z,287.20
2023-05-08T03:24:00.345Z,408.80
2023-05-08T03:24:54.731Z,184.40
2023-05-08T03:25:54.712Z,223.20
2023-05-08T03:26:54.850Z,350.40
2023-05-08T03:27:54.693Z,407.90
2023-05-08T03:28:54.671Z,323.70
2023-05-08T03:29:54.785Z,400.00
2023-05-08T03:30:54.779Z,342.10
2023-05-08T03:31:54.677Z,421.70
2023-05-08T03:32:55.272Z,353.30
2023-05-08T03:33:54.716Z,274.60
2023-05-08T03:34:54.621Z,261.40
2023-05-08T03:35:54.770Z,293.60
2023-05-08T03:36:54.708Z,198.60
2023-05-08T03:37:54.803Z,207.70
2023-05-08T03:38:54.667Z,262.10
2023-05-08T03:39:54.635Z,236.30
2023-05-08T03:40:54.759Z,230.10
2023-05-08T03:41:54.565Z,323.50
2023-05-08T03:42:54.590Z,311.00
2023-05-08T03:43:54.647Z,333.70
2023-05-08T03:44:54.559Z,296.60
2023-05-08T03:45:54.571Z,324.50
2023-05-08T03:46:54.562Z,240.10
2023-05-08T03:47:54.559Z,252.10
2023-05-08T03:48:54.704Z,282.50
2023-05-08T03:49:54.524Z,341.50
2023-05-08T03:50:54.634Z,318.60
2023-05-08T03:51:54.567Z,328.20
2023-05-08T03:52:54.512Z,275.30
2023-05-08T03:53:54.601Z,181.80
2023-05-08T03:54:54.524Z,307.00
2023-05-08T03:55:54.515Z,267.20
2023-05-08T03:56:54.676Z,306.60
2023-05-08T03:57:54.582Z,266.90
2023-05-08T03:58:54.501Z,223.90
2023-05-08T03:59:54.596Z,317.40
2023-05-08T04:00:54.642Z,335.10
2023-05-08T04:01:54.559Z,294.60
2023-05-08T04:02:54.637Z,272.40
2023-05-08T04:03:54.858Z,259.60
2023-05-08T04:04:54.538Z,236.70
2023-05-08T04:05:54.738Z,239.90
2023-05-08T04:06:55.242Z,229.60
2023-05-08T04:07:54.406Z,265.60
2023-05-08T04:08:54.498Z,293.60
2023-05-08T04:09:54.464Z,194.00
2023-05-08T04:10:54.473Z,275.10
2023-05-08T04:11:54.435Z,290.30
2023-05-08T04:12:54.435Z,274.90
2023-05-08T04:13:54.492Z,268.90
2023-05-08T04:14:56.350Z,250.80
2023-05-08T04:15:55.472Z,241.40
2023-05-08T04:16:54.427Z,252.60
2023-05-08T04:17:54.345Z,305.80
2023-05-08T04:18:54.539Z,321.00
2023-05-08T04:19:54.297Z,294.10
2023-05-08T04:20:54.927Z,290.80
2023-05-08T04:21:54.448Z,287.00
2023-05-08T04:22:54.344Z,233.50
2023-05-08T04:23:54.400Z,259.00
2023-05-08T04:24:54.281Z,268.70
2023-05-08T04:25:54.418Z,276.10
2023-05-08T04:26:54.436Z,238.40
2023-05-08T04:27:54.333Z,254.50
2023-05-08T04:28:54.204Z,246.00
2023-05-08T04:29:54.228Z,227.60
2023-05-08T04:31:08.823Z,185.10
2023-05-08T04:31:54.272Z,222.00
2023-05-08T04:32:54.282Z,229.00
2023-05-08T04:33:54.177Z,252.30
2023-05-08T04:34:54.136Z,236.10
2023-05-08T04:35:54.164Z,244.30
2023-05-08T04:36:54.154Z,175.90
2023-05-08T04:37:54.397Z,213.80
2023-05-08T04:38:54.122Z,246.90
2023-05-08T04:39:54.125Z,210.90
2023-05-08T04:40:54.180Z,212.20
2023-05-08T04:41:54.086Z,228.80
2023-05-08T04:43:17.580Z,228.40
2023-05-08T04:43:54.088Z,232.60
2023-05-08T04:44:54.080Z,220.40
2023-05-08T04:45:54.082Z,378.80
2023-05-08T04:46:54.087Z,276.20
2023-05-08T04:47:54.084Z,235.30
2023-05-08T04:48:54.088Z,276.80
2023-05-08T04:49:54.044Z,253.50
2023-05-08T04:50:54.081Z,189.90
2023-05-08T04:51:54.071Z,237.40
2023-05-08T04:52:54.024Z,225.40
2023-05-08T04:53:54.022Z,188.90
2023-05-08T04:54:54.049Z,174.40
2023-05-08T04:55:55.018Z,218.80
2023-05-08T04:56:53.988Z,215.40
2023-05-08T04:57:53.980Z,218.20
2023-05-08T04:58:53.999Z,313.40
2023-05-08T04:59:54.047Z,344.20
2023-05-08T05:00:53.977Z,433.30
2023-05-08T05:01:53.975Z,274.30
2023-05-08T05:02:54.146Z,265.80
2023-05-08T05:03:54.003Z,334.30
2023-05-08T05:04:53.977Z,260.60
2023-05-08T05:05:54.006Z,255.50
2023-05-08T05:06:53.925Z,323.90
2023-05-08T05:07:53.860Z,275.40
2023-05-08T05:08:53.905Z,292.40
2023-05-08T05:09:53.922Z,318.20
2023-05-08T05:10:53.950Z,262.60
2023-05-08T05:11:53.932Z,221.80
2023-05-08T05:12:53.879Z,215.70
2023-05-08T05:13:53.873Z,220.50
2023-05-08T05:14:53.891Z,222.40
2023-05-08T05:15:53.997Z,240.70
2023-05-08T05:16:53.886Z,220.80
2023-05-08T05:17:53.927Z,360.80
2023-05-08T05:18:53.839Z,345.90
2023-05-08T05:19:53.893Z,271.60
2023-05-08T05:20:53.845Z,282.00
2023-05-08T05:21:53.876Z,313.60
2023-05-08T05:22:53.837Z,291.60
2023-05-08T05:23:53.840Z,273.70
2023-05-08T05:24:53.791Z,286.40
2023-05-08T05:25:53.781Z,259.20
2023-05-08T05:26:53.797Z,290.20
2023-05-08T05:27:53.819Z,323.40
2023-05-08T05:28:53.764Z,326.90
2023-05-08T05:29:53.788Z,314.70
2023-05-08T05:30:53.753Z,304.90
2023-05-08T05:31:53.906Z,372.60
2023-05-08T05:32:53.843Z,417.20
2023-05-08T05:33:53.760Z,479.80
2023-05-08T05:34:53.776Z,458.60
2023-05-08T05:35:53.696Z,442.00
2023-05-08T05:36:53.687Z,455.10
2023-05-08T05:37:53.715Z,301.50
2023-05-08T05:38:54.209Z,425.00
2023-05-08T05:39:53.719Z,376.50
2023-05-08T05:40:53.749Z,315.70
2023-05-08T05:41:53.689Z,462.80
2023-05-08T05:42:53.718Z,507.60
2023-05-08T05:43:53.711Z,427.70
2023-05-08T05:44:53.693Z,368.60
2023-05-08T05:45:54.636Z,468.20
2023-05-08T05:47:25.624Z,502.60
2023-05-08T05:47:53.692Z,854.30
2023-05-08T05:48:53.636Z,422.50
2023-05-08T05:49:53.675Z,472.70
2023-05-08T05:50:53.682Z,376.70
2023-05-08T05:51:53.661Z,379.50
2023-05-08T05:52:53.642Z,434.60
2023-05-08T05:53:53.617Z,470.80
2023-05-08T05:54:53.633Z,476.40
2023-05-08T05:55:53.590Z,475.80
2023-05-08T05:56:53.592Z,611.50
2023-05-08T05:57:53.547Z,613.20
2023-05-08T05:58:53.587Z,533.50
2023-05-08T05:59:54.816Z,533.00
2023-05-08T06:00:54.606Z,533.80
2023-05-08T06:01:53.643Z,637.00
2023-05-08T06:02:53.726Z,527.80
2023-05-08T06:03:53.661Z,525.00
2023-05-08T06:04:53.534Z,653.90
2023-05-08T06:05:54.337Z,583.90
2023-05-08T06:06:53.650Z,594.80
2023-05-08T06:07:53.515Z,606.10
2023-05-08T06:08:54.484Z,673.00
2023-05-08T06:09:53.499Z,621.40
2023-05-08T06:10:53.473Z,589.10
2023-05-08T06:11:53.521Z,603.40
2023-05-08T06:12:53.448Z,446.10
2023-05-08T06:13:53.499Z,576.00
2023-05-08T06:14:53.470Z,457.70
2023-05-08T06:15:53.522Z,590.40
2023-05-08T06:16:54.477Z,530.60
2023-05-08T06:17:53.434Z,501.60
2023-05-08T06:18:53.433Z,491.60
2023-05-08T06:19:53.451Z,543.90
2023-05-08T06:20:53.390Z,440.30
2023-05-08T06:21:53.408Z,411.40
2023-05-08T06:23:09.800Z,406.90
2023-05-08T06:23:54.373Z,596.20
2023-05-08T06:24:53.378Z,630.30
2023-05-08T06:25:53.434Z,538.90
2023-05-08T06:26:53.376Z,583.10
2023-05-08T06:27:53.464Z,444.60
2023-05-08T06:28:53.358Z,355.90
2023-05-08T06:29:53.365Z,428.70
2023-05-08T06:30:53.388Z,399.70
2023-05-08T06:31:53.370Z,549.60
2023-05-08T06:32:53.391Z,476.50
2023-05-08T06:33:53.355Z,377.50
2023-05-08T06:34:53.369Z,318.10
2023-05-08T06:35:53.295Z,346.60
2023-05-08T06:36:53.249Z,284.60
2023-05-08T06:37:53.284Z,393.70
2023-05-08T06:38:53.356Z,272.90
2023-05-08T06:40:03.853Z,348.90
2023-05-08T06:40:55.307Z,328.70
2023-05-08T06:41:54.280Z,280.40
2023-05-08T06:42:53.244Z,334.10
2023-05-08T06:43:53.353Z,351.60
2023-05-08T06:44:53.244Z,364.60
2023-05-08T06:45:53.263Z,393.20
2023-05-08T06:46:53.280Z,366.40
2023-05-08T06:47:53.205Z,429.30
2023-05-08T06:48:53.233Z,384.70
2023-05-08T06:49:53.999Z,490.90
2023-05-08T06:50:53.196Z,515.00
2023-05-08T06:51:54.018Z,384.10
2023-05-08T06:52:53.162Z,535.60
2023-05-08T06:53:53.232Z,556.80
2023-05-08T06:54:53.176Z,541.00
2023-05-08T06:55:54.198Z,556.70
2023-05-08T06:56:53.128Z,415.10
2023-05-08T06:57:53.177Z,456.00
2023-05-08T06:59:04.571Z,167.20
2023-05-08T06:59:55.175Z,125.40
2023-05-08T07:00:53.231Z,169.10
2023-05-08T07:01:53.158Z,223.70
2023-05-08T07:02:53.192Z,188.50
2023-05-08T07:03:53.115Z,235.80
2023-05-08T07:04:53.128Z,237.60
2023-05-08T07:05:53.150Z,279.70
2023-05-08T07:06:53.077Z,191.80
2023-05-08T07:07:53.111Z,219.60
2023-05-08T07:08:53.082Z,218.00
2023-05-08T07:09:53.118Z,206.00
2023-05-08T07:10:53.095Z,191.90
2023-05-08T07:11:53.061Z,205.70
2023-05-08T07:12:53.218Z,169.20
2023-05-08T07:13:53.049Z,138.80
2023-05-08T07:14:53.809Z,194.60
2023-05-08T07:15:53.069Z,192.20
2023-05-08T07:16:53.122Z,223.90
2023-05-08T07:17:53.199Z,214.80
2023-05-08T07:18:53.059Z,266.00
2023-05-08T07:19:53.002Z,260.30
2023-05-08T07:20:52.991Z,250.90
2023-05-08T07:21:53.037Z,214.70
2023-05-08T07:22:53.017Z,149.80
2023-05-08T07:23:52.976Z,129.50
2023-05-08T07:24:52.969Z,153.20
2023-05-08T07:25:53.952Z,165.60
2023-05-08T07:26:52.961Z,186.20
2023-05-08T07:27:52.999Z,248.10
2023-05-08T07:28:52.976Z,233.40
2023-05-08T07:29:52.897Z,194.20
2023-05-08T07:30:52.923Z,163.80
2023-05-08T07:31:52.975Z,248.20
2023-05-08T07:32:53.104Z,257.70
2023-05-08T07:33:52.892Z,323.90
2023-05-08T07:34:52.898Z,302.20
2023-05-08T07:35:52.898Z,291.30
2023-05-08T07:36:52.919Z,353.30
2023-05-08T07:37:52.990Z,311.20
2023-05-08T07:38:52.896Z,330.80
2023-05-08T07:39:52.958Z,296.90
2023-05-08T07:40:52.892Z,266.30
2023-05-08T07:41:52.945Z,293.10
2023-05-08T07:42:52.878Z,297.00
2023-05-08T07:43:52.871Z,260.40
2023-05-08T07:44:55.246Z,203.70
2023-05-08T07:45:53.842Z,232.50
2023-05-08T07:46:52.848Z,252.80
2023-05-08T07:47:52.816Z,252.10
2023-05-08T07:48:52.802Z,307.80
2023-05-08T07:49:53.049Z,409.80
2023-05-08T07:50:52.771Z,294.20
2023-05-08T07:51:52.748Z,400.00
2023-05-08T07:52:52.965Z,404.80
2023-05-08T07:53:52.734Z,420.80
2023-05-08T07:54:52.732Z,402.90
2023-05-08T07:55:52.762Z,403.90
2023-05-08T07:56:52.864Z,382.50
2023-05-08T07:57:52.725Z,409.00
2023-05-08T07:58:52.683Z,390.80
2023-05-08T07:59:52.726Z,347.00
2023-05-08T08:00:52.799Z,318.80
2023-05-08T08:01:52.739Z,393.50
2023-05-08T08:02:52.906Z,384.50
2023-05-08T08:03:52.765Z,343.90
2023-05-08T08:04:52.672Z,294.00
2023-05-08T08:05:52.733Z,272.30
2023-05-08T08:06:52.664Z,307.60
2023-05-08T08:07:52.647Z,301.00
2023-05-08T08:08:52.652Z,297.30
2023-05-08T08:09:52.630Z,259.80
2023-05-08T08:11:03.805Z,272.80
2023-05-08T08:11:53.679Z,287.10
2023-05-08T08:12:52.651Z,279.10
2023-05-08T08:13:52.633Z,303.30
2023-05-08T08:14:52.617Z,321.60
2023-05-08T08:15:52.670Z,281.50
2023-05-08T08:16:52.846Z,264.80
2023-05-08T08:17:52.650Z,333.70
2023-05-08T08:18:52.594Z,232.30
2023-05-08T08:19:52.608Z,196.20
2023-05-08T08:20:52.561Z,183.00
2023-05-08T08:21:52.609Z,215.10
2023-05-08T08:22:52.550Z,244.10
2023-05-08T08:23:52.557Z,318.10
2023-05-08T08:24:54.895Z,208.80
2023-05-08T08:25:53.514Z,227.50
2023-05-08T08:26:52.558Z,166.30
2023-05-08T08:27:52.591Z,271.10
2023-05-08T08:28:52.473Z,218.30
2023-05-08T08:29:58.793Z,244.80
2023-05-08T08:30:54.555Z,250.70
2023-05-08T08:31:52.481Z,304.70
2023-05-08T08:32:52.702Z,282.10
2023-05-08T08:33:52.454Z,283.70
2023-05-08T08:34:52.470Z,288.80
2023-05-08T08:35:52.476Z,265.00
2023-05-08T08:36:52.469Z,282.60
2023-05-08T08:37:52.435Z,302.80
2023-05-08T08:38:52.496Z,286.00
2023-05-08T08:39:52.437Z,257.90
2023-05-08T08:40:52.435Z,171.70
2023-05-08T08:41:52.405Z,142.00
2023-05-08T08:42:52.416Z,141.40
2023-05-08T08:43:52.464Z,138.20
2023-05-08T08:44:52.391Z,182.10
2023-05-08T08:45:52.459Z,165.50
2023-05-08T08:46:52.546Z,142.90
2023-05-08T08:47:52.461Z,194.00
2023-05-08T08:48:52.397Z,170.30
2023-05-08T08:49:52.476Z,180.30
2023-05-08T08:50:52.330Z,160.90
2023-05-08T08:51:52.330Z,179.10
2023-05-08T08:52:52.327Z,225.50
2023-05-08T08:53:52.366Z,221.70
2023-05-08T08:54:52.392Z,230.20
2023-05-08T08:55:52.459Z,145.90
2023-05-08T08:56:52.287Z,132.10
2023-05-08T08:57:52.317Z,141.90
2023-05-08T08:58:52.380Z,155.40
2023-05-08T08:59:52.326Z,173.50
2023-05-08T09:00:52.332Z,171.30
2023-05-08T09:01:52.347Z,179.80
2023-05-08T09:02:52.339Z,146.20
2023-05-08T09:03:52.458Z,167.20
2023-05-08T09:04:52.338Z,167.00
2023-05-08T09:05:52.254Z,181.20
2023-05-08T09:06:52.253Z,177.00
2023-05-08T09:07:52.237Z,133.30
2023-05-08T09:08:52.287Z,175.40
2023-05-08T09:09:52.234Z,152.20
2023-05-08T09:10:52.196Z,122.60
2023-05-08T09:11:52.241Z,148.20
2023-05-08T09:13:00.080Z,130.60
2023-05-08T09:13:52.175Z,140.30
2023-05-08T09:14:52.195Z,155.10
2023-05-08T09:15:52.252Z,184.40
2023-05-08T09:16:52.358Z,191.80
2023-05-08T09:17:52.219Z,191.50
2023-05-08T09:18:52.196Z,200.70
2023-05-08T09:19:52.154Z,197.60
2023-05-08T09:20:52.207Z,182.70
2023-05-08T09:21:52.076Z,182.80
2023-05-08T09:22:52.193Z,168.50
2023-05-08T09:23:52.115Z,144.00
2023-05-08T09:24:52.156Z,190.10
2023-05-08T09:25:52.144Z,145.30
2023-05-08T09:26:52.113Z,166.50
2023-05-08T09:27:52.144Z,165.20
2023-05-08T09:28:52.089Z,168.30
2023-05-08T09:29:52.115Z,155.00
2023-05-08T09:30:53.075Z,156.20
2023-05-08T09:31:52.121Z,174.20
2023-05-08T09:32:52.200Z,144.40
2023-05-08T09:33:52.157Z,224.30
2023-05-08T09:34:52.057Z,219.00
2023-05-08T09:35:52.023Z,193.90
2023-05-08T09:36:52.123Z,138.20
2023-05-08T09:37:52.040Z,160.80
2023-05-08T09:38:52.052Z,155.40
2023-05-08T09:39:52.030Z,137.80
2023-05-08T09:40:51.968Z,156.10
2023-05-08T09:41:52.000Z,142.00
2023-05-08T09:42:52.003Z,142.50
2023-05-08T09:43:51.964Z,147.00
2023-05-08T09:44:52.022Z,162.80
2023-05-08T09:45:52.017Z,171.00
2023-05-08T09:46:51.976Z,211.20
2023-05-08T09:47:51.972Z,166.50
2023-05-08T09:48:51.971Z,175.10
2023-05-08T09:49:51.995Z,163.40
2023-05-08T09:50:51.971Z,118.80
2023-05-08T09:51:51.915Z,169.90
2023-05-08T09:52:52.040Z,96.90
2023-05-08T09:53:51.999Z,124.60
2023-05-08T09:54:51.926Z,142.70
2023-05-08T09:55:51.894Z,127.00
2023-05-08T09:56:51.854Z,117.20
2023-05-08T09:57:51.876Z,102.50
2023-05-08T09:58:51.939Z,81.60
2023-05-08T09:59:51.895Z,59.60
2023-05-08T10:00:51.949Z,92.30
2023-05-08T10:01:51.874Z,71.70
2023-05-08T10:02:51.924Z,87.60
2023-05-08T10:03:51.875Z,96.20
2023-05-08T10:04:51.991Z,35.50
2023-05-08T10:05:51.811Z,28.50
2023-05-08T10:06:52.340Z,35.00
2023-05-08T10:07:52.053Z,22.10
2023-05-08T10:08:51.859Z,28.70
2023-05-08T10:09:51.794Z,32.80
2023-05-08T10:10:52.442Z,51.90
2023-05-08T10:11:51.908Z,44.60
2023-05-08T10:12:51.841Z,40.80
2023-05-08T10:13:51.772Z,53.20
2023-05-08T10:14:51.767Z,23.60
2023-05-08T10:15:51.774Z,25.70
2023-05-08T10:16:51.843Z,25.80
2023-05-08T10:17:52.796Z,23.80
2023-05-08T10:18:51.776Z,32.70
2023-05-08T10:19:51.717Z,29.40
2023-05-08T10:20:51.716Z,24.40
2023-05-08T10:21:51.732Z,22.50
2023-05-08T10:22:51.776Z,22.60
2023-05-08T10:23:51.752Z,27.30
2023-05-08T10:24:51.791Z,26.40
2023-05-08T10:25:54.115Z,33.30
2023-05-08T10:27:05.568Z,31.80
2023-05-08T10:27:53.687Z,34.10
2023-05-08T10:28:51.670Z,41.00
2023-05-08T10:29:51.655Z,34.00
2023-05-08T10:30:51.663Z,35.80
2023-05-08T10:31:51.757Z,34.60
2023-05-08T10:32:51.685Z,36.70
2023-05-08T10:33:52.074Z,33.70
2023-05-08T10:34:51.687Z,30.00
2023-05-08T10:35:51.868Z,32.70
2023-05-08T10:36:53.904Z,38.20
2023-05-08T10:37:51.807Z,34.60
2023-05-08T10:38:51.894Z,33.30
2023-05-08T10:39:51.607Z,35.80
2023-05-08T10:40:51.630Z,36.40
2023-05-08T10:41:51.573Z,35.20
2023-05-08T10:42:51.581Z,32.50
2023-05-08T10:43:51.603Z,18.10
2023-05-08T10:44:51.619Z,18.90
2023-05-08T10:45:51.804Z,18.10
2023-05-08T10:46:51.630Z,15.40
2023-05-08T10:47:51.671Z,18.30
2023-05-08T10:48:51.564Z,15.20
2023-05-08T10:49:51.694Z,13.80
2023-05-08T10:50:51.624Z,15.80
2023-05-08T10:51:51.498Z,13.30
2023-05-08T10:52:51.520Z,15.90
2023-05-08T10:53:51.496Z,16.80
2023-05-08T10:54:51.482Z,16.30
2023-05-08T10:55:51.515Z,16.00
2023-05-08T10:56:51.478Z,15.50
2023-05-08T10:57:51.456Z,17.00
2023-05-08T10:58:51.461Z,17.40
2023-05-08T10:59:51.472Z,15.70
2023-05-08T11:00:51.480Z,16.30
2023-05-08T11:01:51.532Z,15.80
2023-05-08T11:03:31.487Z,20.70
2023-05-08T11:03:52.558Z,16.80
2023-05-08T11:04:51.472Z,17.20
2023-05-08T11:06:23.453Z,14.40
2023-05-08T11:06:51.441Z,18.00
2023-05-08T11:07:51.405Z,14.20
2023-05-08T11:08:51.511Z,19.70
2023-05-08T11:09:51.347Z,14.30
2023-05-08T11:10:51.369Z,20.40
2023-05-08T11:11:51.426Z,20.30
2023-05-08T11:12:51.406Z,17.00
2023-05-08T11:13:51.380Z,20.70
2023-05-08T11:14:51.354Z,19.20
2023-05-08T11:15:51.404Z,16.40
2023-05-08T11:16:56.496Z,17.60
2023-05-08T11:17:51.581Z,16.00
2023-05-08T11:18:51.558Z,18.30
2023-05-08T11:19:52.095Z,19.50
2023-05-08T11:20:51.329Z,19.50
2023-05-08T11:21:51.549Z,19.70
2023-05-08T11:22:51.330Z,15.70
2023-05-08T11:23:52.273Z,16.60
2023-05-08T11:24:51.850Z,15.50
2023-05-08T11:25:51.295Z,16.50
2023-05-08T11:26:51.451Z,17.80
2023-05-08T11:27:51.401Z,16.20
2023-05-08T11:28:51.513Z,20.40
2023-05-08T11:29:51.290Z,19.70
2023-05-08T11:30:51.392Z,19.70
2023-05-08T11:31:51.290Z,20.10
2023-05-08T11:32:51.593Z,21.80
2023-05-08T11:33:51.209Z,17.60
2023-05-08T11:34:52.266Z,17.00
2023-05-08T11:35:51.234Z,16.40
2023-05-08T11:36:51.452Z,16.70
2023-05-08T11:37:52.116Z,16.50
2023-05-08T11:38:51.549Z,17.20
2023-05-08T11:39:51.567Z,16.80
2023-05-08T11:40:51.773Z,16.80
2023-05-08T11:41:51.459Z,16.60
2023-05-08T11:42:51.417Z,16.60
2023-05-08T11:43:51.566Z,14.70
2023-05-08T11:44:51.276Z,13.60
2023-05-08T11:45:51.216Z,16.70
2023-05-08T11:46:51.240Z,13.90
2023-05-08T11:47:51.208Z,17.20
2023-05-08T11:48:51.250Z,17.00
2023-05-08T11:49:51.231Z,17.40
2023-05-08T11:50:51.442Z,18.10
2023-05-08T11:51:51.095Z,19.20
2023-05-08T11:52:51.157Z,17.30
2023-05-08T11:53:51.515Z,18.20
2023-05-08T11:54:51.165Z,20.40
2023-05-08T11:55:51.244Z,19.10
2023-05-08T11:56:51.783Z,20.20
2023-05-08T11:57:51.161Z,25.90
2023-05-08T11:58:51.080Z,21.10
2023-05-08T11:59:51.196Z,20.80
2023-05-08T12:00:51.235Z,16.60
2023-05-08T12:02:06.948Z,24.00
2023-05-08T12:02:53.213Z,23.20
2023-05-08T12:03:51.216Z,21.90
2023-05-08T12:04:51.372Z,16.90
2023-05-08T12:05:51.194Z,17.50
2023-05-08T12:06:51.133Z,17.10
2023-05-08T12:07:51.000Z,16.70
2023-05-08T12:08:51.137Z,18.30
2023-05-08T12:09:51.054Z,14.00
2023-05-08T12:10:51.023Z,17.70
2023-05-08T12:11:51.050Z,20.80
2023-05-08T12:12:51.363Z,20.90
2023-05-08T12:13:50.913Z,17.00
2023-05-08T12:14:51.266Z,17.20
2023-05-08T12:15:51.305Z,18.00
2023-05-08T12:16:50.952Z,18.20
2023-05-08T12:17:51.120Z,21.80
2023-05-08T12:18:50.920Z,24.50
2023-05-08T12:19:51.003Z,20.10
2023-05-08T12:20:50.963Z,21.20
2023-05-08T12:21:50.926Z,25.90
2023-05-08T12:22:50.996Z,22.90
2023-05-08T12:23:50.878Z,20.30
2023-05-08T12:24:50.971Z,19.30
2023-05-08T12:25:52.666Z,29.60
2023-05-08T12:26:51.024Z,36.70
2023-05-08T12:27:51.007Z,31.50
2023-05-08T12:28:50.915Z,22.20
2023-05-08T12:29:50.858Z,22.30
2023-05-08T12:30:50.840Z,42.50
2023-05-08T12:31:50.855Z,43.80
2023-05-08T12:32:50.904Z,49.20
2023-05-08T12:33:51.076Z,39.70